Hauptseite
METAR-TAF:

METAR-TAF

Flughäfen :

Amman, Jordanien

Flughafen Marka International

Breite: 31-59N, Länge: 035-59E, Höhe: 767 m

Beobachtung

Neuester Wetterbericht von vor 40 Minuten, um 11:00 UTC
Wind 3 kt aus West
Temperatur 31°C
Luftfeuchtigkeit 33%
Luftdruck 1017 hPa
Sichtweite: 5000 m
trockener Dunst

METAR: OJAM 221100Z 27003KT 5000 HZ NSC 31/13 Q1017 NOSIG

Zeit: 14:40 (11:40 UTC)

Prognose

Neuester Wetterbericht von vor 6 Stunden und 50 Minuten, um 04:50 UTC
Gültige Prognose vom 22 um 06 UTC bis 23 um 12 UTC
Wind 12 kt aus West
Sichtweite: 5000 m
trockener Dunst

TAF: OJAM 220450Z 2206/2312 28012KT 5000 HZ NSC

Wetterbeobachtungen und Prognosen von mehr als 4000 Flughäfen (METAR und TAF Bericht).

Die verfügbaren Stationen werden durch gelbe und rote Markierungen auf der Karte dargestellt.

Führen Sie die Maus auf sie, um den Namen der Station zu sehen.

Darauf klicken, um die Beobachtung von Wetterbeobachtungen und Prognosen zu sehen.

Um die Karte zu ändern : klicken Sie auf den grünen Tasten mit einem schwarzen Kreuz Zum Vergrößern, auf den grünen Button mit einem Gedankenstrich zu verkleinern, oder auf die grünen Pfeile für benachbarte Karten.


METAR-TAF: